sensor_id;sensor_type;location;lat;lon;timestamp;pressure;altitude;pressure_sealevel;temperature;humidity
14120;BME280;7138;49.246;9.100;2023-02-13T00:00:37;100752.44;;;5.32;100.00
14120;BME280;7138;49.246;9.100;2023-02-13T00:03:03;100751.63;;;5.33;100.00
14120;BME280;7138;49.246;9.100;2023-02-13T00:05:31;100753.16;;;5.30;100.00
14120;BME280;7138;49.246;9.100;2023-02-13T00:07:56;100746.28;;;5.29;100.00
14120;BME280;7138;49.246;9.100;2023-02-13T00:10:22;100743.16;;;5.34;100.00
14120;BME280;7138;49.246;9.100;2023-02-13T00:12:48;100740.75;;;5.37;100.00
14120;BME280;7138;49.246;9.100;2023-02-13T00:15:14;100737.47;;;5.40;100.00
14120;BME280;7138;49.246;9.100;2023-02-13T00:17:40;100738.97;;;5.36;100.00
14120;BME280;7138;49.246;9.100;2023-02-13T00:20:08;100736.25;;;5.33;100.00
14120;BME280;7138;49.246;9.100;2023-02-13T00:22:37;100738.97;;;5.36;100.00
14120;BME280;7138;49.246;9.100;2023-02-13T00:25:04;100737.19;;;5.35;100.00
14120;BME280;7138;49.246;9.100;2023-02-13T00:27:30;100740.75;;;5.37;100.00
14120;BME280;7138;49.246;9.100;2023-02-13T00:29:56;100741.69;;;5.39;100.00
14120;BME280;7138;49.246;9.100;2023-02-13T00:32:22;100735.78;;;5.40;100.00
14120;BME280;7138;49.246;9.100;2023-02-13T00:34:48;100730.50;;;5.37;100.00
14120;BME280;7138;49.246;9.100;2023-02-13T00:37:13;100732.16;;;5.37;100.00
14120;BME280;7138;49.246;9.100;2023-02-13T00:39:41;100731.84;;;5.31;100.00
14120;BME280;7138;49.246;9.100;2023-02-13T00:42:07;100724.38;;;5.35;100.00
14120;BME280;7138;49.246;9.100;2023-02-13T00:44:32;100726.63;;;5.29;100.00
14120;BME280;7138;49.246;9.100;2023-02-13T00:46:58;100726.63;;;5.29;100.00
14120;BME280;7138;49.246;9.100;2023-02-13T00:49:24;100736.88;;;5.29;100.00
14120;BME280;7138;49.246;9.100;2023-02-13T00:51:50;100732.47;;;5.27;100.00
14120;BME280;7138;49.246;9.100;2023-02-13T00:54:16;100735.03;;;5.27;100.00
14120;BME280;7138;49.246;9.100;2023-02-13T00:56:43;100735.13;;;5.28;100.00
14120;BME280;7138;49.246;9.100;2023-02-13T00:59:09;100729.03;;;5.26;100.00
14120;BME280;7138;49.246;9.100;2023-02-13T01:01:35;100735.94;;;5.27;100.00
14120;BME280;7138;49.246;9.100;2023-02-13T01:04:01;100737.69;;;5.28;100.00
14120;BME280;7138;49.246;9.100;2023-02-13T01:06:27;100736.66;;;5.25;100.00
14120;BME280;7138;49.246;9.100;2023-02-13T01:08:52;100740.00;;;5.24;100.00
14120;BME280;7138;49.246;9.100;2023-02-13T01:11:18;100743.06;;;5.17;100.00
14120;BME280;7138;49.246;9.100;2023-02-13T01:13:46;100735.91;;;5.11;100.00
14120;BME280;7138;49.246;9.100;2023-02-13T01:16:12;100725.59;;;5.10;100.00
14120;BME280;7138;49.246;9.100;2023-02-13T01:18:40;100731.50;;;5.09;100.00
14120;BME280;7138;49.246;9.100;2023-02-13T01:21:14;100732.38;;;5.09;100.00
14120;BME280;7138;49.246;9.100;2023-02-13T01:23:40;100726.94;;;5.03;100.00
14120;BME280;7138;49.246;9.100;2023-02-13T01:26:10;100734.16;;;5.10;100.00
14120;BME280;7138;49.246;9.100;2023-02-13T01:28:40;100732.22;;;5.06;100.00
14120;BME280;7138;49.246;9.100;2023-02-13T01:31:07;100723.63;;;5.06;100.00
14120;BME280;7138;49.246;9.100;2023-02-13T01:33:33;100726.94;;;5.03;100.00
14120;BME280;7138;49.246;9.100;2023-02-13T01:36:06;100718.03;;;4.96;100.00
14120;BME280;7138;49.246;9.100;2023-02-13T01:38:32;100721.31;;;4.94;100.00
14120;BME280;7138;49.246;9.100;2023-02-13T01:40:58;100721.31;;;4.94;100.00
14120;BME280;7138;49.246;9.100;2023-02-13T01:43:24;100724.50;;;4.90;100.00
14120;BME280;7138;49.246;9.100;2023-02-13T01:45:54;100716.63;;;4.87;100.00
14120;BME280;7138;49.246;9.100;2023-02-13T01:48:24;100699.88;;;4.77;100.00
14120;BME280;7138;49.246;9.100;2023-02-13T01:50:57;100716.00;;;4.91;100.00
14120;BME280;7138;49.246;9.100;2023-02-13T01:53:30;100719.84;;;4.83;100.00
14120;BME280;7138;49.246;9.100;2023-02-13T01:56:04;100718.09;;;4.82;100.00
14120;BME280;7138;49.246;9.100;2023-02-13T01:58:36;100720.38;;;4.77;100.00
14120;BME280;7138;49.246;9.100;2023-02-13T02:01:05;100722.09;;;4.77;100.00
14120;BME280;7138;49.246;9.100;2023-02-13T02:03:39;100717.91;;;4.79;100.00
14120;BME280;7138;49.246;9.100;2023-02-13T02:06:11;100716.13;;;4.78;100.00
14120;BME280;7138;49.246;9.100;2023-02-13T02:08:39;100701.72;;;4.64;100.00
14120;BME280;7138;49.246;9.100;2023-02-13T02:11:16;100705.56;;;4.72;100.00
14120;BME280;7138;49.246;9.100;2023-02-13T02:13:45;100712.19;;;4.68;100.00
14120;BME280;7138;49.246;9.100;2023-02-13T02:16:11;100715.31;;;4.63;100.00
14120;BME280;7138;49.246;9.100;2023-02-13T02:18:38;100717.63;;;4.58;100.00
14120;BME280;7138;49.246;9.100;2023-02-13T02:21:44;100715.13;;;4.60;100.00
14120;BME280;7138;49.246;9.100;2023-02-13T02:28:09;100715.06;;;4.58;100.00
14120;BME280;7138;49.246;9.100;2023-02-13T02:34:30;100713.38;;;4.59;100.00
14120;BME280;7138;49.246;9.100;2023-02-13T02:37:19;100719.47;;;4.61;100.00
14120;BME280;7138;49.246;9.100;2023-02-13T02:40:05;100712.41;;;4.57;100.00
14120;BME280;7138;49.246;9.100;2023-02-13T02:42:43;100709.78;;;4.55;100.00
14120;BME280;7138;49.246;9.100;2023-02-13T02:45:24;100702.09;;;4.55;100.00
14120;BME280;7138;49.246;9.100;2023-02-13T02:47:58;100710.38;;;4.51;100.00
14120;BME280;7138;49.246;9.100;2023-02-13T02:50:51;100702.63;;;4.50;100.00
14120;BME280;7138;49.246;9.100;2023-02-13T02:53:30;100713.84;;;4.52;100.00
14120;BME280;7138;49.246;9.100;2023-02-13T02:56:06;100707.94;;;4.53;100.00
14120;BME280;7138;49.246;9.100;2023-02-13T02:58:42;100712.22;;;4.54;100.00
14120;BME280;7138;49.246;9.100;2023-02-13T03:01:33;100716.41;;;4.52;100.00
14120;BME280;7138;49.246;9.100;2023-02-13T03:04:23;100715.34;;;4.48;100.00
14120;BME280;7138;49.246;9.100;2023-02-13T03:07:15;100712.59;;;4.45;100.00
14120;BME280;7138;49.246;9.100;2023-02-13T03:09:47;100709.00;;;4.41;100.00
14120;BME280;7138;49.246;9.100;2023-02-13T03:12:43;100713.06;;;4.38;100.00
14120;BME280;7138;49.246;9.100;2023-02-13T03:15:29;100718.09;;;4.36;100.00
14120;BME280;7138;49.246;9.100;2023-02-13T03:17:56;100715.53;;;4.36;100.00
14120;BME280;7138;49.246;9.100;2023-02-13T03:20:46;100716.81;;;4.28;100.00
14120;BME280;7138;49.246;9.100;2023-02-13T03:23:47;100722.25;;;4.34;100.00
14120;BME280;7138;49.246;9.100;2023-02-13T03:26:37;100719.59;;;4.33;100.00
14120;BME280;7138;49.246;9.100;2023-02-13T03:29:27;100718.72;;;4.32;100.00
14120;BME280;7138;49.246;9.100;2023-02-13T03:32:25;100724.91;;;4.21;100.00
14120;BME280;7138;49.246;9.100;2023-02-13T03:35:06;100729.88;;;4.18;100.00
14120;BME280;7138;49.246;9.100;2023-02-13T03:38:03;100737.44;;;4.17;100.00
14120;BME280;7138;49.246;9.100;2023-02-13T03:40:42;100737.72;;;4.21;100.00
14120;BME280;7138;49.246;9.100;2023-02-13T03:43:39;100743.63;;;4.20;100.00
14120;BME280;7138;49.246;9.100;2023-02-13T03:46:09;100738.50;;;4.20;100.00
14120;BME280;7138;49.246;9.100;2023-02-13T03:48:38;100738.31;;;4.17;100.00
14120;BME280;7138;49.246;9.100;2023-02-13T03:51:28;100741.00;;;4.19;100.00
14120;BME280;7138;49.246;9.100;2023-02-13T03:54:01;100747.84;;;4.20;100.00
14120;BME280;7138;49.246;9.100;2023-02-13T03:56:34;100745.41;;;4.21;100.00
14120;BME280;7138;49.246;9.100;2023-02-13T03:59:24;100738.69;;;4.23;100.00
14120;BME280;7138;49.246;9.100;2023-02-13T04:02:13;100742.47;;;4.30;100.00
14120;BME280;7138;49.246;9.100;2023-02-13T04:04:49;100740.00;;;4.31;100.00
14120;BME280;7138;49.246;9.100;2023-02-13T04:07:20;100732.34;;;4.31;100.00
14120;BME280;7138;49.246;9.100;2023-02-13T04:10:00;100749.44;;;4.32;100.00
14120;BME280;7138;49.246;9.100;2023-02-13T04:12:38;100746.16;;;4.35;100.00
14120;BME280;7138;49.246;9.100;2023-02-13T04:15:14;100744.31;;;4.32;100.00
14120;BME280;7138;49.246;9.100;2023-02-13T04:17:47;100743.59;;;4.35;100.00
14120;BME280;7138;49.246;9.100;2023-02-13T04:20:14;100747.06;;;4.35;100.00
14120;BME280;7138;49.246;9.100;2023-02-13T04:22:45;100749.72;;;4.37;100.00
14120;BME280;7138;49.246;9.100;2023-02-13T04:25:13;100755.00;;;4.40;100.00
14120;BME280;7138;49.246;9.100;2023-02-13T04:27:41;100749.97;;;4.41;100.00
14120;BME280;7138;49.246;9.100;2023-02-13T04:30:09;100755.78;;;4.39;100.00
14120;BME280;7138;49.246;9.100;2023-02-13T04:32:35;100754.91;;;4.38;100.00
14120;BME280;7138;49.246;9.100;2023-02-13T04:35:01;100749.97;;;4.41;100.00
14120;BME280;7138;49.246;9.100;2023-02-13T04:37:27;100758.88;;;4.48;100.00
14120;BME280;7138;49.246;9.100;2023-02-13T04:39:53;100746.84;;;4.47;100.00
14120;BME280;7138;49.246;9.100;2023-02-13T04:42:18;100757.09;;;4.47;100.00
14120;BME280;7138;49.246;9.100;2023-02-13T04:44:45;100757.97;;;4.48;100.00
14120;BME280;7138;49.246;9.100;2023-02-13T04:47:11;100755.44;;;4.48;100.00
14120;BME280;7138;49.246;9.100;2023-02-13T04:49:37;100755.44;;;4.48;100.00
14120;BME280;7138;49.246;9.100;2023-02-13T04:52:04;100753.03;;;4.51;100.00
14120;BME280;7138;49.246;9.100;2023-02-13T04:54:30;100754.63;;;4.49;100.00
14120;BME280;7138;49.246;9.100;2023-02-13T04:56:55;100747.13;;;4.52;100.00
14120;BME280;7138;49.246;9.100;2023-02-13T04:59:21;100751.13;;;4.47;100.00
14120;BME280;7138;49.246;9.100;2023-02-13T05:01:48;100753.69;;;4.47;100.00
14120;BME280;7138;49.246;9.100;2023-02-13T05:04:14;100759.31;;;4.41;100.00
14120;BME280;7138;49.246;9.100;2023-02-13T05:06:42;100755.78;;;4.39;100.00
14120;BME280;7138;49.246;9.100;2023-02-13T05:09:09;100745.03;;;4.30;100.00
14120;BME280;7138;49.246;9.100;2023-02-13T05:11:35;100739.22;;;4.18;100.00
14120;BME280;7138;49.246;9.100;2023-02-13T05:14:01;100755.63;;;4.21;100.00
14120;BME280;7138;49.246;9.100;2023-02-13T05:16:27;100754.31;;;4.28;100.00
14120;BME280;7138;49.246;9.100;2023-02-13T05:18:54;100752.78;;;4.17;100.00
14120;BME280;7138;49.246;9.100;2023-02-13T05:21:20;100762.97;;;4.15;100.00
14120;BME280;7138;49.246;9.100;2023-02-13T05:24:05;100756.00;;;3.98;100.00
14120;BME280;7138;49.246;9.100;2023-02-13T05:26:31;100760.13;;;3.96;100.00
14120;BME280;7138;49.246;9.100;2023-02-13T05:28:57;100764.88;;;3.90;100.00
14120;BME280;7138;49.246;9.100;2023-02-13T05:31:41;100765.94;;;3.94;100.00
14120;BME280;7138;49.246;9.100;2023-02-13T05:34:09;100762.69;;;3.96;100.00
14120;BME280;7138;49.246;9.100;2023-02-13T05:36:34;100761.19;;;4.00;100.00
14120;BME280;7138;49.246;9.100;2023-02-13T05:39:00;100766.13;;;3.97;100.00
14120;BME280;7138;49.246;9.100;2023-02-13T05:41:26;100755.81;;;3.95;100.00
14120;BME280;7138;49.246;9.100;2023-02-13T05:43:52;100761.97;;;3.99;100.00
14120;BME280;7138;49.246;9.100;2023-02-13T05:46:18;100756.84;;;3.99;100.00
14120;BME280;7138;49.246;9.100;2023-02-13T05:48:43;100767.00;;;3.97;100.00
14120;BME280;7138;49.246;9.100;2023-02-13T05:51:11;100762.59;;;3.95;100.00
14120;BME280;7138;49.246;9.100;2023-02-13T05:53:37;100761.53;;;3.91;100.00
14120;BME280;7138;49.246;9.100;2023-02-13T05:56:04;100757.91;;;3.88;100.00
14120;BME280;7138;49.246;9.100;2023-02-13T05:58:31;100753.69;;;3.88;100.00
14120;BME280;7138;49.246;9.100;2023-02-13T06:00:58;100754.56;;;3.89;100.00
14120;BME280;7138;49.246;9.100;2023-02-13T06:03:24;100752.00;;;3.89;100.00
14120;BME280;7138;49.246;9.100;2023-02-13T06:05:51;100750.84;;;3.83;100.00
14120;BME280;7138;49.246;9.100;2023-02-13T06:08:18;100751.91;;;3.87;100.00
14120;BME280;7138;49.246;9.100;2023-02-13T06:10:44;100763.81;;;3.86;100.00
14120;BME280;7138;49.246;9.100;2023-02-13T06:13:10;100756.84;;;3.84;100.00
14120;BME280;7138;49.246;9.100;2023-02-13T06:15:36;100756.66;;;3.81;100.00
14120;BME280;7138;49.246;9.100;2023-02-13T06:18:02;100753.13;;;3.79;100.00
14120;BME280;7138;49.246;9.100;2023-02-13T06:20:28;100758.00;;;3.89;100.00
14120;BME280;7138;49.246;9.100;2023-02-13T06:22:54;100762.44;;;3.92;100.00
14120;BME280;7138;49.246;9.100;2023-02-13T06:25:21;100763.13;;;3.89;100.00
14120;BME280;7138;49.246;9.100;2023-02-13T06:27:47;100757.03;;;3.87;100.00
14120;BME280;7138;49.246;9.100;2023-02-13T06:30:15;100757.91;;;3.88;100.00
14120;BME280;7138;49.246;9.100;2023-02-13T06:32:41;100753.41;;;3.83;100.00
14120;BME280;7138;49.246;9.100;2023-02-13T06:35:08;100760.47;;;3.88;100.00
14120;BME280;7138;49.246;9.100;2023-02-13T06:37:34;100771.94;;;3.79;100.00
14120;BME280;7138;49.246;9.100;2023-02-13T06:40:00;100772.34;;;3.72;100.00
14120;BME280;7138;49.246;9.100;2023-02-13T06:42:27;100772.50;;;3.61;100.00
14120;BME280;7138;49.246;9.100;2023-02-13T06:44:53;100772.50;;;3.61;100.00
14120;BME280;7138;49.246;9.100;2023-02-13T06:47:19;100771.25;;;3.54;100.00
14120;BME280;7138;49.246;9.100;2023-02-13T06:49:45;100778.22;;;3.57;100.00
14120;BME280;7138;49.246;9.100;2023-02-13T06:52:11;100768.94;;;3.59;100.00
14120;BME280;7138;49.246;9.100;2023-02-13T06:54:36;100779.00;;;3.56;100.00
14120;BME280;7138;49.246;9.100;2023-02-13T06:57:02;100776.44;;;3.56;100.00
14120;BME280;7138;49.246;9.100;2023-02-13T06:59:29;100777.25;;;3.55;100.00
14120;BME280;7138;49.246;9.100;2023-02-13T07:01:55;100786.09;;;3.47;100.00
14120;BME280;7138;49.246;9.100;2023-02-13T07:04:21;100785.94;;;3.44;100.00
14120;BME280;7138;49.246;9.100;2023-02-13T07:06:47;100789.63;;;3.34;100.00
14120;BME280;7138;49.246;9.100;2023-02-13T07:09:13;100784.59;;;3.36;100.00
14120;BME280;7138;49.246;9.100;2023-02-13T07:11:39;100783.50;;;3.32;100.00
14120;BME280;7138;49.246;9.100;2023-02-13T07:14:06;100784.59;;;3.36;100.00
14120;BME280;7138;49.246;9.100;2023-02-13T07:16:33;100786.06;;;3.32;100.00
14120;BME280;7138;49.246;9.100;2023-02-13T07:18:59;100786.06;;;3.32;100.00
14120;BME280;7138;49.246;9.100;2023-02-13T07:21:25;100792.84;;;3.31;100.00
14120;BME280;7138;49.246;9.100;2023-02-13T07:23:51;100795.03;;;3.25;100.00
14120;BME280;7138;49.246;9.100;2023-02-13T07:26:17;100796.91;;;3.28;100.00
14120;BME280;7138;49.246;9.100;2023-02-13T07:28:43;100790.78;;;3.26;100.00
14120;BME280;7138;49.246;9.100;2023-02-13T07:31:09;100796.22;;;3.17;100.00
14120;BME280;7138;49.246;9.100;2023-02-13T07:33:37;100794.56;;;3.18;100.00
14120;BME280;7138;49.246;9.100;2023-02-13T07:36:04;100785.94;;;3.16;100.00
14120;BME280;7138;49.246;9.100;2023-02-13T07:38:31;100796.94;;;3.15;100.00
14120;BME280;7138;49.246;9.100;2023-02-13T07:40:58;100799.69;;;3.05;100.00
14120;BME280;7138;49.246;9.100;2023-02-13T07:43:25;100814.06;;;3.03;100.00
14120;BME280;7138;49.246;9.100;2023-02-13T07:45:50;100801.59;;;2.94;100.00
14120;BME280;7138;49.246;9.100;2023-02-13T07:48:20;100810.53;;;3.01;100.00
14120;BME280;7138;49.246;9.100;2023-02-13T07:50:47;100810.91;;;3.07;100.00
14120;BME280;7138;49.246;9.100;2023-02-13T07:53:13;100805.00;;;3.08;100.00
14120;BME280;7138;49.246;9.100;2023-02-13T07:55:39;100809.44;;;2.97;100.00
14120;BME280;7138;49.246;9.100;2023-02-13T07:58:05;100802.44;;;3.08;100.00
14120;BME280;7138;49.246;9.100;2023-02-13T08:00:31;100797.31;;;3.08;100.00
14120;BME280;7138;49.246;9.100;2023-02-13T08:02:58;100799.38;;;3.13;100.00
14120;BME280;7138;49.246;9.100;2023-02-13T08:05:24;100798.03;;;3.05;100.00
14120;BME280;7138;49.246;9.100;2023-02-13T08:07:52;100804.81;;;3.05;100.00
14120;BME280;7138;49.246;9.100;2023-02-13T08:10:19;100800.97;;;3.11;100.00
14120;BME280;7138;49.246;9.100;2023-02-13T08:13:05;100794.38;;;3.15;100.00
14120;BME280;7138;49.246;9.100;2023-02-13T08:15:31;100797.72;;;3.14;100.00
14120;BME280;7138;49.246;9.100;2023-02-13T08:17:57;100791.03;;;3.16;100.00
14120;BME280;7138;49.246;9.100;2023-02-13T08:20:23;100791.91;;;3.16;100.00
14120;BME280;7138;49.246;9.100;2023-02-13T08:22:50;100791.91;;;3.16;100.00
14120;BME280;7138;49.246;9.100;2023-02-13T08:25:16;100788.38;;;3.14;100.00
14120;BME280;7138;49.246;9.100;2023-02-13T08:27:43;100796.34;;;3.19;100.00
14120;BME280;7138;49.246;9.100;2023-02-13T08:30:10;100788.75;;;3.20;100.00
14120;BME280;7138;49.246;9.100;2023-02-13T08:32:36;100790.91;;;3.27;100.00
14120;BME280;7138;49.246;9.100;2023-02-13T08:35:02;100794.22;;;3.40;100.00
14120;BME280;7138;49.246;9.100;2023-02-13T08:37:28;100790.06;;;3.42;100.00
14120;BME280;7138;49.246;9.100;2023-02-13T08:39:55;100788.97;;;3.51;100.00
14120;BME280;7138;49.246;9.100;2023-02-13T08:42:21;100788.00;;;3.49;100.00
14120;BME280;7138;49.246;9.100;2023-02-13T08:44:47;100788.38;;;3.55;100.00
14120;BME280;7138;49.246;9.100;2023-02-13T08:47:13;100790.41;;;3.61;100.00
14120;BME280;7138;49.246;9.100;2023-02-13T08:49:39;100798.34;;;3.65;100.00
14120;BME280;7138;49.246;9.100;2023-02-13T08:52:05;100799.97;;;3.78;100.00
14120;BME280;7138;49.246;9.100;2023-02-13T08:54:32;100797.41;;;3.78;100.00
14120;BME280;7138;49.246;9.100;2023-02-13T08:57:00;100802.16;;;3.72;100.00
14120;BME280;7138;49.246;9.100;2023-02-13T08:59:25;100805.50;;;3.71;100.00
14120;BME280;7138;49.246;9.100;2023-02-13T09:01:51;100805.31;;;3.68;100.00
14120;BME280;7138;49.246;9.100;2023-02-13T09:04:17;100806.13;;;3.67;100.00
14120;BME280;7138;49.246;9.100;2023-02-13T09:06:44;100806.38;;;3.71;100.00
14120;BME280;7138;49.246;9.100;2023-02-13T09:09:10;100794.84;;;3.78;100.00
14120;BME280;7138;49.246;9.100;2023-02-13T09:11:36;100802.19;;;3.86;100.00
14120;BME280;7138;49.246;9.100;2023-02-13T09:14:03;100803.44;;;3.93;100.00
14120;BME280;7138;49.246;9.100;2023-02-13T09:16:29;100804.16;;;4.05;100.00
14120;BME280;7138;49.246;9.100;2023-02-13T09:18:55;100809.47;;;4.08;100.00
14120;BME280;7138;49.246;9.100;2023-02-13T09:21:22;100802.50;;;4.06;100.00
14120;BME280;7138;49.246;9.100;2023-02-13T09:23:49;100804.88;;;4.03;100.00
14120;BME280;7138;49.246;9.100;2023-02-13T09:26:17;100789.16;;;3.97;100.00
14120;BME280;7138;49.246;9.100;2023-02-13T09:28:43;100804.69;;;4.14;100.00
14120;BME280;7138;49.246;9.100;2023-02-13T09:31:16;100803.50;;;4.22;100.00
14120;BME280;7138;49.246;9.100;2023-02-13T09:33:43;100808.06;;;4.28;100.00
14120;BME280;7138;49.246;9.100;2023-02-13T09:36:12;100797.81;;;4.43;100.00
14120;BME280;7138;49.246;9.100;2023-02-13T09:38:40;100801.44;;;4.61;100.00
14120;BME280;7138;49.246;9.100;2023-02-13T09:41:13;100794.94;;;4.82;100.00
14120;BME280;7138;49.246;9.100;2023-02-13T09:43:45;100800.75;;;4.94;100.00
14120;BME280;7138;49.246;9.100;2023-02-13T09:46:18;100794.69;;;5.08;100.00
14120;BME280;7138;49.246;9.100;2023-02-13T09:48:49;100788.00;;;5.26;100.00
14120;BME280;7138;49.246;9.100;2023-02-13T09:51:19;100787.41;;;5.46;100.00
14120;BME280;7138;49.246;9.100;2023-02-13T09:53:50;100789.41;;;5.52;100.00
14120;BME280;7138;49.246;9.100;2023-02-13T09:56:26;100781.25;;;5.59;100.00
14120;BME280;7138;49.246;9.100;2023-02-13T09:59:04;100787.50;;;5.80;100.00
14120;BME280;7138;49.246;9.100;2023-02-13T10:01:38;100787.75;;;6.01;100.00
14120;BME280;7138;49.246;9.100;2023-02-13T10:04:24;100785.13;;;6.17;100.00
14120;BME280;7138;49.246;9.100;2023-02-13T10:07:10;100783.41;;;6.34;100.00
14120;BME280;7138;49.246;9.100;2023-02-13T10:09:47;100785.06;;;6.49;98.68
14120;BME280;7138;49.246;9.100;2023-02-13T10:12:30;100785.78;;;6.65;98.50
14120;BME280;7138;49.246;9.100;2023-02-13T10:15:16;100767.34;;;6.73;97.70
14120;BME280;7138;49.246;9.100;2023-02-13T10:17:53;100780.16;;;6.89;97.11
14120;BME280;7138;49.246;9.100;2023-02-13T10:20:30;100779.69;;;6.98;96.99
14120;BME280;7138;49.246;9.100;2023-02-13T10:23:07;100782.41;;;7.01;95.93
14120;BME280;7138;49.246;9.100;2023-02-13T10:25:42;100781.59;;;7.02;96.11
14120;BME280;7138;49.246;9.100;2023-02-13T10:28:16;100781.19;;;7.12;96.50
14120;BME280;7138;49.246;9.100;2023-02-13T10:30:51;100774.28;;;7.29;97.02
14120;BME280;7138;49.246;9.100;2023-02-13T10:33:27;100766.22;;;7.40;95.31
14120;BME280;7138;49.246;9.100;2023-02-13T10:36:01;100767.56;;;7.51;94.87
14120;BME280;7138;49.246;9.100;2023-02-13T10:38:31;100772.19;;;7.58;93.53
14120;BME280;7138;49.246;9.100;2023-02-13T10:41:32;100764.13;;;7.70;93.47
14120;BME280;7138;49.246;9.100;2023-02-13T10:44:22;100758.75;;;7.85;93.00
14120;BME280;7138;49.246;9.100;2023-02-13T10:47:10;100742.91;;;7.95;92.74
14120;BME280;7138;49.246;9.100;2023-02-13T10:49:57;100744.22;;;8.06;91.63
14120;BME280;7138;49.246;9.100;2023-02-13T10:52:41;100755.16;;;8.00;90.14
14120;BME280;7138;49.246;9.100;2023-02-13T10:55:27;100755.34;;;8.05;90.68
14120;BME280;7138;49.246;9.100;2023-02-13T10:58:08;100754.53;;;8.06;90.61
14120;BME280;7138;49.246;9.100;2023-02-13T11:00:45;100747.38;;;8.19;91.27
14120;BME280;7138;49.246;9.100;2023-02-13T11:03:18;100741.00;;;8.31;90.03
14120;BME280;7138;49.246;9.100;2023-02-13T11:05:46;100733.59;;;8.38;90.79
14120;BME280;7138;49.246;9.100;2023-02-13T11:08:20;100736.69;;;8.50;90.13
14120;BME280;7138;49.246;9.100;2023-02-13T11:10:46;100738.19;;;8.66;89.51
14120;BME280;7138;49.246;9.100;2023-02-13T11:13:18;100739.34;;;8.74;89.09
14120;BME280;7138;49.246;9.100;2023-02-13T11:15:57;100732.91;;;8.85;88.80
14120;BME280;7138;49.246;9.100;2023-02-13T11:18:25;100734.44;;;9.02;89.32
14120;BME280;7138;49.246;9.100;2023-02-13T11:21:03;100733.31;;;9.18;88.33
14120;BME280;7138;49.246;9.100;2023-02-13T11:23:41;100733.72;;;9.28;87.81
14120;BME280;7138;49.246;9.100;2023-02-13T11:26:11;100710.59;;;9.31;87.12
14120;BME280;7138;49.246;9.100;2023-02-13T11:28:47;100721.44;;;9.45;87.04
14120;BME280;7138;49.246;9.100;2023-02-13T11:31:26;100726.28;;;9.60;86.97
14120;BME280;7138;49.246;9.100;2023-02-13T11:33:52;100727.16;;;9.60;85.74
14120;BME280;7138;49.246;9.100;2023-02-13T11:36:26;100721.53;;;9.72;86.77
14120;BME280;7138;49.246;9.100;2023-02-13T11:39:02;100719.59;;;9.90;85.63
14120;BME280;7138;49.246;9.100;2023-02-13T11:41:35;100717.47;;;10.04;86.22
14120;BME280;7138;49.246;9.100;2023-02-13T11:44:04;100712.72;;;10.14;84.64
14120;BME280;7138;49.246;9.100;2023-02-13T11:46:45;100715.50;;;10.20;84.43
14120;BME280;7138;49.246;9.100;2023-02-13T11:49:18;100716.47;;;10.24;83.25
14120;BME280;7138;49.246;9.100;2023-02-13T11:51:49;100712.50;;;10.33;84.19
14120;BME280;7138;49.246;9.100;2023-02-13T11:54:35;100722.25;;;10.42;83.30
14120;BME280;7138;49.246;9.100;2023-02-13T11:57:20;100716.28;;;10.45;82.45
14120;BME280;7138;49.246;9.100;2023-02-13T11:59:50;100720.69;;;10.47;82.43
14120;BME280;7138;49.246;9.100;2023-02-13T12:02:20;100717.47;;;10.54;82.14
14120;BME280;7138;49.246;9.100;2023-02-13T12:04:48;100718.50;;;10.59;82.18
14120;BME280;7138;49.246;9.100;2023-02-13T12:07:22;100718.78;;;10.68;82.92
14120;BME280;7138;49.246;9.100;2023-02-13T12:09:56;100706.03;;;10.74;83.03
14120;BME280;7138;49.246;9.100;2023-02-13T12:12:34;100711.84;;;10.95;82.41
14120;BME280;7138;49.246;9.100;2023-02-13T12:15:16;100703.94;;;11.19;83.09
14120;BME280;7138;49.246;9.100;2023-02-13T12:17:43;100704.72;;;11.17;80.21
14120;BME280;7138;49.246;9.100;2023-02-13T12:20:13;100699.88;;;11.27;80.86
14120;BME280;7138;49.246;9.100;2023-02-13T12:22:57;100702.75;;;11.38;78.95
14120;BME280;7138;49.246;9.100;2023-02-13T12:25:55;100692.72;;;11.48;79.58
14120;BME280;7138;49.246;9.100;2023-02-13T12:28:37;100694.50;;;11.51;79.42
14120;BME280;7138;49.246;9.100;2023-02-13T12:31:39;100685.28;;;11.62;78.77
14120;BME280;7138;49.246;9.100;2023-02-13T12:35:01;100683.72;;;11.67;78.39
14120;BME280;7138;49.246;9.100;2023-02-13T12:37:54;100682.97;;;11.70;77.20
14120;BME280;7138;49.246;9.100;2023-02-13T12:40:47;100672.84;;;11.79;77.59
14120;BME280;7138;49.246;9.100;2023-02-13T12:46:46;100678.25;;;11.88;77.61
14120;BME280;7138;49.246;9.100;2023-02-13T12:49:42;100682.00;;;11.99;76.02
14120;BME280;7138;49.246;9.100;2023-02-13T12:52:33;100677.56;;;11.95;77.20
14120;BME280;7138;49.246;9.100;2023-02-13T12:55:20;100670.72;;;11.97;76.59
14120;BME280;7138;49.246;9.100;2023-02-13T12:58:04;100672.75;;;12.09;77.15
14120;BME280;7138;49.246;9.100;2023-02-13T13:00:48;100666.09;;;12.20;75.72
14120;BME280;7138;49.246;9.100;2023-02-13T13:03:42;100664.81;;;12.37;77.08
14120;BME280;7138;49.246;9.100;2023-02-13T13:06:25;100660.66;;;12.45;76.76
14120;BME280;7138;49.246;9.100;2023-02-13T13:09:09;100669.19;;;12.39;75.57
14120;BME280;7138;49.246;9.100;2023-02-13T13:12:15;100656.06;;;12.33;76.29
14120;BME280;7138;49.246;9.100;2023-02-13T13:14:55;100660.50;;;12.39;75.99
14120;BME280;7138;49.246;9.100;2023-02-13T13:17:43;100657.44;;;12.55;76.07
14120;BME280;7138;49.246;9.100;2023-02-13T13:20:40;100650.75;;;12.66;75.66
14120;BME280;7138;49.246;9.100;2023-02-13T13:23:12;100653.38;;;12.68;75.75
14120;BME280;7138;49.246;9.100;2023-02-13T13:25:52;100643.94;;;12.71;75.39
14120;BME280;7138;49.246;9.100;2023-02-13T13:28:29;100654.41;;;12.74;74.93
14120;BME280;7138;49.246;9.100;2023-02-13T13:30:58;100653.63;;;12.78;75.39
14120;BME280;7138;49.246;9.100;2023-02-13T13:33:26;100648.56;;;12.84;75.56
14120;BME280;7138;49.246;9.100;2023-02-13T13:36:05;100642.69;;;12.93;74.82
14120;BME280;7138;49.246;9.100;2023-02-13T13:38:50;100639.47;;;13.04;73.16
14120;BME280;7138;49.246;9.100;2023-02-13T13:41:29;100646.41;;;13.04;73.52